Time;durP1;ratioP1;P1;durP2;ratioP2;P2;SDS_P1;SDS_P2;PMS_P1;PMS_P2;Temp;Humidity;BMP_temperature;BMP_pressure;BME280_temperature;BME280_humidity;BME280_pressure;Samples;Min_cycle;Max_cycle;Signal;HPM_P1;HPM_P2
2023/07/31 00:01:06;;;;;;;3.33;3.13;;;15.00;77.60;;;;;;6205773;28;20231;-85
2023/07/31 00:04:09;;;;;;;3.50;3.20;;;14.90;77.50;;;;;;6221139;28;20231;-83
2023/07/31 00:07:14;;;;;;;3.60;3.30;;;14.80;77.60;;;;;;6229345;28;20246;-84
2023/07/31 00:10:17;;;;;;;2.70;2.60;;;14.80;77.60;;;;;;6225979;28;20227;-84
2023/07/31 00:13:23;;;;;;;2.70;2.60;;;14.80;77.70;;;;;;6210436;28;20389;-83
2023/07/31 00:16:26;;;;;;;2.97;2.87;;;14.80;77.70;;;;;;6212109;28;20240;-84
2023/07/31 00:19:29;;;;;;;2.97;2.77;;;14.80;77.70;;;;;;6229029;28;20238;-84
2023/07/31 00:22:34;;;;;;;3.67;3.37;;;14.80;77.90;;;;;;6227188;28;20322;-85
2023/07/31 00:25:37;;;;;;;3.50;3.10;;;14.80;78.00;;;;;;6216296;28;20752;-84
2023/07/31 00:28:40;;;;;;;3.83;3.27;;;14.80;78.10;;;;;;6212710;28;20238;-83
2023/07/31 00:31:43;;;;;;;3.47;3.27;;;14.80;78.10;;;;;;6220469;28;20246;-81
2023/07/31 00:34:46;;;;;;;4.03;3.83;;;14.80;78.30;;;;;;6228621;28;20246;-82
2023/07/31 00:37:51;;;;;;;3.27;3.10;;;14.80;78.60;;;;;;6219874;28;20231;-83
2023/07/31 00:40:54;;;;;;;3.90;3.60;;;14.70;78.90;;;;;;6219991;28;20294;-84
2023/07/31 00:43:57;;;;;;;4.10;3.80;;;14.70;79.20;;;;;;6228861;28;20246;-82
2023/07/31 00:47:01;;;;;;;3.93;3.63;;;14.70;79.10;;;;;;6226275;28;20365;-85
2023/07/31 00:50:08;;;;;;;3.50;3.30;;;14.70;79.50;;;;;;6231915;28;20246;-84
2023/07/31 00:53:13;;;;;;;4.77;3.50;;;14.70;79.30;;;;;;6222554;28;20232;-83
2023/07/31 00:56:17;;;;;;;4.07;3.53;;;14.80;79.40;;;;;;6236840;28;20238;-82
2023/07/31 00:59:26;;;;;;;4.43;4.13;;;14.90;79.30;;;;;;6220869;28;20743;-83
2023/07/31 01:02:29;;;;;;;4.53;4.23;;;14.90;79.70;;;;;;6228022;28;20238;-81
2023/07/31 01:05:40;;;;;;;3.83;3.70;;;14.90;79.40;;;;;;6214671;28;20254;-84
2023/07/31 01:08:55;;;;;;;4.27;3.90;;;14.90;79.50;;;;;;6220813;28;20289;-82
2023/07/31 01:12:03;;;;;;;4.07;3.80;;;15.00;79.30;;;;;;6214073;28;20255;-83
2023/07/31 01:15:10;;;;;;;4.27;3.93;;;15.00;79.40;;;;;;6221217;28;20262;-85
2023/07/31 01:18:13;;;;;;;4.00;3.80;;;15.00;79.40;;;;;;6227151;28;20389;-82
2023/07/31 01:21:30;;;;;;;4.73;4.43;;;15.00;79.60;;;;;;6223351;28;20242;-84
2023/07/31 01:24:50;;;;;;;4.10;3.90;;;15.00;79.80;;;;;;6216663;28;20223;-86
2023/07/31 01:28:02;;;;;;;5.83;4.50;;;15.00;79.70;;;;;;6221865;28;20231;-80
2023/07/31 01:31:10;;;;;;;4.87;4.47;;;15.00;79.50;;;;;;6233632;28;20765;-82
2023/07/31 01:34:15;;;;;;;5.00;4.70;;;15.00;79.60;;;;;;6214854;28;20876;-84
2023/07/31 01:37:18;;;;;;;3.90;3.70;;;15.00;79.60;;;;;;6220731;28;20262;-83
2023/07/31 01:40:21;;;;;;;3.70;3.40;;;15.00;79.50;;;;;;6221714;28;20242;-84
2023/07/31 01:43:26;;;;;;;4.93;4.47;;;15.10;79.50;;;;;;6228987;28;20900;-84
2023/07/31 01:46:29;;;;;;;4.53;4.33;;;15.10;79.60;;;;;;6230748;28;20261;-83
2023/07/31 01:49:33;;;;;;;4.23;3.90;;;15.20;79.40;;;;;;6224285;28;20367;-82
2023/07/31 01:52:36;;;;;;;4.00;3.70;;;15.20;79.30;;;;;;6231872;28;20321;-82
2023/07/31 01:55:39;;;;;;;4.57;4.20;;;15.20;79.30;;;;;;6224967;28;20239;-85
2023/07/31 01:58:44;;;;;;;3.80;3.60;;;15.20;79.20;;;;;;6236000;28;20757;-85
2023/07/31 02:01:47;;;;;;;3.87;3.67;;;15.20;79.20;;;;;;6219729;28;20234;-84
2023/07/31 02:04:50;;;;;;;3.77;3.57;;;15.30;79.10;;;;;;6230084;28;20250;-83
2023/07/31 02:07:54;;;;;;;3.60;3.40;;;15.30;79.00;;;;;;6226720;28;20223;-84
2023/07/31 02:10:57;;;;;;;4.23;3.97;;;15.30;79.00;;;;;;6232269;28;20270;-85
2023/07/31 02:14:01;;;;;;;4.30;3.93;;;15.30;79.10;;;;;;6223004;28;20719;-85
2023/07/31 02:17:17;;;;;;;4.40;3.97;;;15.30;79.10;;;;;;6230659;28;20281;-84
2023/07/31 02:20:20;;;;;;;4.03;3.73;;;15.30;79.30;;;;;;6231128;28;20848;-82
2023/07/31 02:23:24;;;;;;;3.90;3.70;;;15.30;79.20;;;;;;6223981;28;20317;-84
2023/07/31 02:26:27;;;;;;;4.00;3.70;;;15.30;79.10;;;;;;6226842;28;20515;-84
2023/07/31 02:29:32;;;;;;;4.13;3.90;;;15.30;79.20;;;;;;6228365;28;20317;-83
2023/07/31 02:32:35;;;;;;;3.83;3.13;;;15.30;79.20;;;;;;6225315;28;20330;-82
2023/07/31 02:35:38;;;;;;;4.23;4.00;;;15.40;79.10;;;;;;6223878;28;20262;-81
2023/07/31 02:38:41;;;;;;;6.47;4.97;;;15.40;79.10;;;;;;6222962;28;20246;-80
2023/07/31 02:41:45;;;;;;;4.93;4.53;;;15.40;79.20;;;;;;6229133;28;20372;-84
2023/07/31 02:44:51;;;;;;;4.30;4.00;;;15.40;79.00;;;;;;6222002;28;20242;-83
2023/07/31 02:47:55;;;;;;;4.30;4.00;;;15.40;79.00;;;;;;6235106;28;20242;-83
2023/07/31 02:50:58;;;;;;;4.30;4.10;;;15.50;78.90;;;;;;6226264;28;20230;-81
2023/07/31 02:54:01;;;;;;;4.90;4.50;;;15.50;78.90;;;;;;6229701;28;20329;-84
2023/07/31 02:57:06;;;;;;;4.90;4.53;;;15.50;78.80;;;;;;6237933;28;20282;-84
2023/07/31 03:00:11;;;;;;;4.93;4.50;;;15.50;78.80;;;;;;6221299;28;20309;-84
2023/07/31 03:03:14;;;;;;;4.33;4.03;;;15.50;78.70;;;;;;6223182;28;20235;-80
2023/07/31 03:06:18;;;;;;;5.10;4.80;;;15.50;78.70;;;;;;6221848;28;20250;-83
2023/07/31 03:09:21;;;;;;;5.07;4.67;;;15.50;79.00;;;;;;6213319;28;20239;-83
2023/07/31 03:12:24;;;;;;;5.00;4.70;;;15.40;79.20;;;;;;6228490;28;20601;-83
2023/07/31 03:15:29;;;;;;;6.97;5.33;;;15.40;79.00;;;;;;6231659;28;20231;-83
2023/07/31 03:18:32;;;;;;;5.00;4.80;;;15.50;79.30;;;;;;6227092;28;20239;-82
2023/07/31 03:21:35;;;;;;;5.10;4.80;;;15.30;79.40;;;;;;6230121;28;20938;-83
2023/07/31 03:24:39;;;;;;;5.43;5.03;;;15.30;79.70;;;;;;6221101;28;20334;-84
2023/07/31 03:27:42;;;;;;;7.10;6.03;;;15.30;79.70;;;;;;6215252;28;20440;-84
2023/07/31 03:30:47;;;;;;;5.50;5.20;;;15.30;79.80;;;;;;6234095;28;20401;-80
2023/07/31 03:33:50;;;;;;;5.37;5.03;;;15.20;79.90;;;;;;6218608;28;20254;-82
2023/07/31 03:36:53;;;;;;;5.97;5.47;;;15.30;79.90;;;;;;6217368;28;20645;-79
2023/07/31 03:39:57;;;;;;;5.93;5.60;;;15.20;80.00;;;;;;6227376;28;20246;-80
2023/07/31 03:43:00;;;;;;;7.40;6.10;;;15.20;80.30;;;;;;6224066;28;20265;-80
2023/07/31 03:46:04;;;;;;;6.40;6.07;;;15.10;80.60;;;;;;6221417;28;20251;-80
2023/07/31 03:49:07;;;;;;;7.43;6.50;;;15.00;80.80;;;;;;6224424;28;20239;-79
2023/07/31 03:52:11;;;;;;;6.40;5.93;;;15.00;80.70;;;;;;6227479;28;20768;-79
2023/07/31 03:55:14;;;;;;;6.17;5.57;;;15.10;80.80;;;;;;6224817;28;20373;-79
2023/07/31 03:58:17;;;;;;;6.97;6.37;;;15.20;80.70;;;;;;6215997;28;20317;-80
2023/07/31 04:01:22;;;;;;;8.30;6.67;;;15.20;80.60;;;;;;6221847;28;20388;-80
2023/07/31 04:04:25;;;;;;;6.20;5.70;;;15.20;80.70;;;;;;6229431;28;20313;-80
2023/07/31 04:07:28;;;;;;;7.13;6.27;;;15.20;80.70;;;;;;6219803;28;20237;-78
2023/07/31 04:10:33;;;;;;;6.67;6.17;;;15.20;80.40;;;;;;6215601;28;20772;-82
2023/07/31 04:13:36;;;;;;;5.60;5.37;;;15.20;80.40;;;;;;6217404;28;20755;-80
2023/07/31 04:16:41;;;;;;;6.80;5.97;;;15.20;80.40;;;;;;6227376;28;20234;-81
2023/07/31 04:19:47;;;;;;;5.93;5.63;;;15.30;80.40;;;;;;6212870;28;20242;-80
2023/07/31 04:22:51;;;;;;;6.97;6.37;;;15.40;80.20;;;;;;6228995;28;20316;-80
2023/07/31 04:25:54;;;;;;;6.23;5.70;;;15.40;80.20;;;;;;6221846;28;20864;-80
2023/07/31 04:28:57;;;;;;;6.47;5.87;;;15.30;80.00;;;;;;6229576;28;20247;-80
2023/07/31 04:32:01;;;;;;;6.60;5.37;;;15.30;80.20;;;;;;6222684;28;20308;-80
2023/07/31 04:35:05;;;;;;;6.60;6.13;;;15.40;80.30;;;;;;6228687;28;20301;-80
2023/07/31 04:38:08;;;;;;;6.43;5.93;;;15.30;79.90;;;;;;6217223;28;20249;-80
2023/07/31 04:41:12;;;;;;;6.47;5.87;;;15.30;80.20;;;;;;6229692;28;20227;-80
2023/07/31 04:44:15;;;;;;;6.00;5.50;;;15.30;80.30;;;;;;6226520;28;20320;-81
2023/07/31 04:47:19;;;;;;;7.03;5.40;;;15.30;80.20;;;;;;6208960;28;20230;-80
2023/07/31 04:50:23;;;;;;;6.23;5.73;;;15.40;80.20;;;;;;6229574;28;20246;-81
2023/07/31 04:53:26;;;;;;;5.70;5.30;;;15.30;80.10;;;;;;6218914;28;20839;-79
2023/07/31 04:56:29;;;;;;;5.93;5.40;;;15.40;80.50;;;;;;6217027;28;20258;-80
2023/07/31 04:59:32;;;;;;;6.17;5.70;;;15.40;80.50;;;;;;6217989;28;20715;-80
2023/07/31 05:02:36;;;;;;;6.77;6.07;;;15.50;80.50;;;;;;6225458;28;20254;-81
2023/07/31 05:05:40;;;;;;;6.07;5.53;;;15.40;80.50;;;;;;6211384;28;21007;-81
2023/07/31 05:08:43;;;;;;;6.40;5.90;;;15.40;80.80;;;;;;6216504;28;20234;-77
2023/07/31 05:11:46;;;;;;;6.17;5.73;;;15.40;80.70;;;;;;6220709;28;22239;-78
2023/07/31 05:14:50;;;;;;;6.73;6.23;;;15.50;80.80;;;;;;6226232;28;20600;-81
2023/07/31 05:17:54;;;;;;;6.90;6.30;;;15.60;80.70;;;;;;6225084;28;20619;-77
2023/07/31 05:20:58;;;;;;;5.97;5.57;;;15.70;80.50;;;;;;6254970;28;20231;-77
2023/07/31 05:24:01;;;;;;;6.53;5.93;;;15.70;80.40;;;;;;6259509;28;20390;-75
2023/07/31 05:27:05;;;;;;;6.67;6.17;;;15.90;80.20;;;;;;6261600;28;20258;-78
2023/07/31 05:30:09;;;;;;;6.70;6.00;;;15.80;80.00;;;;;;6265085;28;20243;-80
2023/07/31 05:33:14;;;;;;;6.37;5.87;;;15.80;80.20;;;;;;6264327;28;20215;-81
2023/07/31 05:36:17;;;;;;;5.83;5.23;;;15.90;80.00;;;;;;6263418;28;20307;-82
2023/07/31 05:39:21;;;;;;;6.37;5.77;;;16.00;79.90;;;;;;6253376;28;20295;-79
2023/07/31 05:42:24;;;;;;;6.33;5.00;;;16.10;79.60;;;;;;6260683;28;20215;-80
2023/07/31 05:45:27;;;;;;;6.30;4.60;;;16.20;78.90;;;;;;6256080;28;20227;-81
2023/07/31 05:48:31;;;;;;;6.17;5.47;;;16.20;79.00;;;;;;6253890;28;20242;-79
2023/07/31 05:51:34;;;;;;;6.77;5.30;;;16.00;79.00;;;;;;6257049;28;20219;-81
2023/07/31 05:54:37;;;;;;;5.90;5.30;;;15.90;79.10;;;;;;6264422;28;20235;-81
2023/07/31 05:57:41;;;;;;;6.67;6.07;;;15.90;79.70;;;;;;6259061;28;20242;-78
2023/07/31 06:00:44;;;;;;;6.47;5.20;;;15.90;79.80;;;;;;6254113;28;20305;-80
2023/07/31 06:03:48;;;;;;;5.40;4.90;;;15.90;79.80;;;;;;6268742;28;20223;-80
2023/07/31 06:11:14;;;;;;;6.03;5.43;;;15.80;80.00;;;;;;6251812;28;20226;-78
2023/07/31 06:14:17;;;;;;;5.73;5.27;;;16.00;80.00;;;;;;6265637;28;20311;-80
2023/07/31 06:17:21;;;;;;;5.03;4.80;;;16.00;79.70;;;;;;6252542;28;20234;-81
2023/07/31 06:20:26;;;;;;;5.73;5.17;;;16.10;79.50;;;;;;6265967;28;20235;-79
2023/07/31 06:23:29;;;;;;;5.93;4.70;;;16.10;79.20;;;;;;6261799;28;20370;-78
2023/07/31 06:26:32;;;;;;;5.20;4.70;;;16.20;79.30;;;;;;6238510;28;20238;-83
2023/07/31 06:29:36;;;;;;;4.83;4.47;;;16.10;79.40;;;;;;6233636;28;20333;-82
2023/07/31 06:32:40;;;;;;;5.90;5.20;;;16.20;79.60;;;;;;6228112;28;20243;-81
2023/07/31 06:35:45;;;;;;;6.07;5.00;;;16.30;79.40;;;;;;6230825;28;20277;-80
2023/07/31 06:38:48;;;;;;;4.83;4.50;;;16.40;79.50;;;;;;6231792;28;20254;-83
2023/07/31 06:41:53;;;;;;;4.73;4.33;;;16.40;79.60;;;;;;6227767;28;20235;-79
2023/07/31 06:44:57;;;;;;;4.83;4.43;;;16.40;79.40;;;;;;6226738;28;20982;-82
2023/07/31 06:48:04;;;;;;;4.37;4.17;;;16.50;79.40;;;;;;6223177;28;20243;-82
2023/07/31 06:51:09;;;;;;;3.97;3.77;;;16.50;78.70;;;;;;6224324;28;20306;-80
2023/07/31 06:54:12;;;;;;;4.20;3.97;;;16.50;78.60;;;;;;6225384;28;20390;-80
2023/07/31 06:57:15;;;;;;;4.90;3.67;;;16.60;78.70;;;;;;6210704;28;20312;-82
2023/07/31 07:00:19;;;;;;;6.17;4.37;;;16.70;78.90;;;;;;6224096;28;20235;-82
2023/07/31 07:03:22;;;;;;;4.80;4.40;;;16.80;78.70;;;;;;6221269;28;20750;-81
2023/07/31 07:06:27;;;;;;;3.77;3.57;;;16.80;77.90;;;;;;6224682;28;20746;-84
2023/07/31 07:09:30;;;;;;;4.67;3.67;;;16.80;77.70;;;;;;6225322;28;20324;-80
2023/07/31 07:12:34;;;;;;;6.03;4.00;;;16.90;77.20;;;;;;6223559;28;20242;-81
2023/07/31 07:15:37;;;;;;;3.97;3.67;;;16.90;77.30;;;;;;6222368;28;20317;-81
2023/07/31 07:18:40;;;;;;;4.57;4.30;;;16.80;77.30;;;;;;6226203;28;20760;-77
2023/07/31 07:22:06;;;;;;;4.70;4.20;;;16.60;77.70;;;;;;6218493;28;20246;-81
2023/07/31 07:25:09;;;;;;;6.40;4.23;;;16.50;78.20;;;;;;6223473;28;20270;-80
2023/07/31 07:28:13;;;;;;;5.13;4.53;;;16.60;78.10;;;;;;6222431;28;20338;-79
2023/07/31 07:31:16;;;;;;;4.10;3.80;;;16.70;77.90;;;;;;6225615;28;20869;-80
2023/07/31 07:34:20;;;;;;;4.80;4.50;;;16.90;77.50;;;;;;6229365;28;20313;-79
2023/07/31 07:37:24;;;;;;;4.53;4.17;;;17.00;77.20;;;;;;6216000;28;22918;-82
2023/07/31 07:40:27;;;;;;;6.37;4.40;;;16.90;77.90;;;;;;6224723;28;20730;-79
2023/07/31 07:43:30;;;;;;;4.27;3.97;;;16.90;77.80;;;;;;6221734;28;20719;-80
2023/07/31 07:46:33;;;;;;;4.30;3.87;;;16.90;78.10;;;;;;6225383;28;20243;-81
2023/07/31 07:49:37;;;;;;;4.00;3.83;;;17.00;78.40;;;;;;6217755;28;20238;-80
2023/07/31 07:52:41;;;;;;;4.17;3.97;;;17.20;77.40;;;;;;6221986;28;20337;-81
2023/07/31 07:55:44;;;;;;;4.63;4.10;;;17.40;76.80;;;;;;6232449;28;20239;-77
2023/07/31 07:58:50;;;;;;;5.70;4.50;;;17.40;76.60;;;;;;6222897;28;20334;-80
2023/07/31 08:01:53;;;;;;;3.77;3.67;;;17.50;76.20;;;;;;6230996;28;20238;-79
2023/07/31 08:04:56;;;;;;;4.20;3.90;;;17.50;76.00;;;;;;6216636;28;20262;-81
2023/07/31 08:08:01;;;;;;;3.73;3.53;;;17.30;76.50;;;;;;6229516;28;20281;-82
2023/07/31 08:11:04;;;;;;;3.23;3.13;;;17.40;76.60;;;;;;6230694;28;20239;-80
2023/07/31 08:14:07;;;;;;;3.17;3.07;;;17.50;76.30;;;;;;6221100;28;20278;-81
2023/07/31 08:17:10;;;;;;;3.90;3.60;;;17.30;76.50;;;;;;6213659;28;20724;-80
2023/07/31 08:20:14;;;;;;;3.83;3.50;;;17.40;77.20;;;;;;6229046;28;20728;-80
2023/07/31 08:23:18;;;;;;;5.77;5.37;;;17.20;77.40;;;;;;6224616;28;20231;-82
2023/07/31 08:26:22;;;;;;;3.87;3.70;;;17.20;77.50;;;;;;6225068;28;20234;-80
2023/07/31 08:29:26;;;;;;;3.60;3.40;;;17.20;77.40;;;;;;6230442;28;20291;-79
2023/07/31 08:32:29;;;;;;;3.30;3.20;;;17.40;77.40;;;;;;6223504;28;20238;-80
2023/07/31 08:35:32;;;;;;;3.23;3.13;;;17.30;77.30;;;;;;6225859;28;20227;-79
2023/07/31 08:38:37;;;;;;;4.30;3.70;;;17.40;77.30;;;;;;6220344;28;20227;-82
2023/07/31 08:41:41;;;;;;;3.30;3.20;;;17.20;78.30;;;;;;6230536;28;20385;-79
2023/07/31 08:44:44;;;;;;;3.77;3.37;;;17.20;78.30;;;;;;6220396;28;20739;-79
2023/07/31 08:47:49;;;;;;;3.97;3.83;;;17.00;77.80;;;;;;6217244;28;20247;-78
2023/07/31 08:50:53;;;;;;;4.87;4.57;;;17.10;78.70;;;;;;6221388;28;20246;-80
2023/07/31 08:53:58;;;;;;;4.07;3.60;;;17.20;78.40;;;;;;6219892;28;20235;-82
2023/07/31 08:57:02;;;;;;;3.60;3.50;;;17.00;78.10;;;;;;6219992;28;20235;-80
2023/07/31 09:00:07;;;;;;;3.40;3.20;;;17.20;78.20;;;;;;6224802;28;20253;-80
2023/07/31 09:03:15;;;;;;;3.13;2.93;;;17.30;77.60;;;;;;6238097;28;20634;-78
2023/07/31 09:06:22;;;;;;;3.33;3.10;;;17.40;77.30;;;;;;6228341;28;20235;-77
2023/07/31 09:09:27;;;;;;;3.53;3.23;;;17.20;77.30;;;;;;6238935;28;20252;-80
2023/07/31 09:12:32;;;;;;;3.57;3.33;;;17.40;77.50;;;;;;6227321;28;20380;-79
2023/07/31 09:15:36;;;;;;;3.73;3.53;;;17.60;77.00;;;;;;6223868;28;20250;-79
2023/07/31 09:18:54;;;;;;;3.30;3.10;;;17.80;76.20;;;;;;6227052;28;20243;-80
2023/07/31 09:21:57;;;;;;;3.33;3.23;;;18.00;76.10;;;;;;6220157;28;20238;-80
2023/07/31 09:25:16;;;;;;;3.20;2.97;;;18.00;75.80;;;;;;6232071;28;20234;-78
2023/07/31 09:28:19;;;;;;;3.20;3.00;;;17.80;76.00;;;;;;6231145;28;20242;-81
2023/07/31 09:31:33;;;;;;;2.80;2.80;;;17.50;76.90;;;;;;6226115;28;20791;-81
2023/07/31 09:34:39;;;;;;;3.13;2.93;;;17.50;76.80;;;;;;6233618;28;20230;-81
2023/07/31 09:37:42;;;;;;;3.20;3.00;;;17.40;77.00;;;;;;6225501;28;20235;-80
2023/07/31 09:40:48;;;;;;;2.77;2.60;;;17.30;77.80;;;;;;6231919;28;20234;-81
2023/07/31 09:43:55;;;;;;;2.60;2.60;;;17.00;78.70;;;;;;6228052;28;20238;-79
2023/07/31 09:46:58;;;;;;;3.13;2.40;;;16.90;79.00;;;;;;6232325;28;20267;-83
2023/07/31 09:50:01;;;;;;;5.00;4.20;;;16.90;79.30;;;;;;6225724;28;20250;-80
2023/07/31 09:53:04;;;;;;;3.50;3.40;;;16.90;79.40;;;;;;6228095;28;20254;-81
2023/07/31 09:56:09;;;;;;;2.20;2.20;;;17.00;79.80;;;;;;6234136;28;20239;-82
2023/07/31 09:59:14;;;;;;;2.60;2.50;;;17.10;78.90;;;;;;6218984;28;20251;-80
2023/07/31 10:02:23;;;;;;;2.70;2.50;;;17.20;78.30;;;;;;6231899;28;20539;-81
2023/07/31 10:05:32;;;;;;;2.63;2.50;;;17.40;78.10;;;;;;6223913;28;20232;-79
2023/07/31 10:08:37;;;;;;;2.70;2.60;;;17.40;78.00;;;;;;6225822;28;20230;-82
2023/07/31 10:11:50;;;;;;;3.27;3.17;;;17.50;77.60;;;;;;6225127;28;20246;-83
2023/07/31 10:14:55;;;;;;;2.83;2.83;;;17.60;76.90;;;;;;6217274;28;20246;-80
2023/07/31 10:18:00;;;;;;;3.10;3.00;;;18.00;76.90;;;;;;6223391;28;20238;-82
2023/07/31 10:21:03;;;;;;;3.27;2.90;;;18.00;76.00;;;;;;6229179;28;20763;-79
2023/07/31 10:24:08;;;;;;;4.10;3.80;;;18.00;75.30;;;;;;6222063;28;20285;-81
2023/07/31 10:27:13;;;;;;;4.40;4.10;;;18.00;76.00;;;;;;6219003;28;20291;-82
2023/07/31 10:30:18;;;;;;;4.83;4.43;;;17.80;76.50;;;;;;6225738;28;20246;-80
2023/07/31 10:33:23;;;;;;;5.07;4.60;;;17.60;76.70;;;;;;6226664;28;20247;-82
2023/07/31 10:36:27;;;;;;;5.40;4.93;;;17.40;78.30;;;;;;6236421;28;20288;-84
2023/07/31 10:39:38;;;;;;;5.00;4.67;;;17.50;78.50;;;;;;6225016;28;20234;-80
2023/07/31 10:42:48;;;;;;;5.37;4.83;;;17.80;77.50;;;;;;6226210;28;20814;-79
2023/07/31 10:45:52;;;;;;;6.10;4.60;;;18.00;77.60;;;;;;6240034;28;20887;-80
2023/07/31 10:48:59;;;;;;;5.10;4.73;;;18.30;76.50;;;;;;6218930;28;20246;-80
2023/07/31 10:52:04;;;;;;;4.50;4.30;;;18.60;76.10;;;;;;6228024;28;20304;-78
2023/07/31 10:55:26;;;;;;;5.57;4.80;;;19.10;74.50;;;;;;6232357;28;20239;-81
2023/07/31 10:58:32;;;;;;;6.23;5.03;;;19.60;72.60;;;;;;6226804;28;20238;-81
2023/07/31 11:01:57;;;;;;;5.20;4.77;;;19.60;72.40;;;;;;6215668;28;20839;-81
2023/07/31 11:05:12;;;;;;;6.10;4.70;;;19.70;71.70;;;;;;6214138;28;20231;-82
2023/07/31 11:08:17;;;;;;;4.73;4.37;;;20.00;72.30;;;;;;6225173;28;20273;-80
2023/07/31 11:11:21;;;;;;;4.83;4.53;;;20.10;70.10;;;;;;6224123;28;20757;-81
2023/07/31 11:14:26;;;;;;;4.93;4.57;;;20.10;70.40;;;;;;6228495;28;20822;-79
2023/07/31 11:17:29;;;;;;;4.90;4.50;;;20.10;69.40;;;;;;6229810;28;20816;-82
2023/07/31 11:20:34;;;;;;;6.40;4.40;;;19.70;69.70;;;;;;6224517;28;20234;-80
2023/07/31 11:23:39;;;;;;;4.83;4.47;;;19.50;70.10;;;;;;6224453;28;20239;-80
2023/07/31 11:26:50;;;;;;;4.70;4.33;;;19.50;69.80;;;;;;6231876;28;20234;-79
2023/07/31 11:30:01;;;;;;;9.23;4.70;;;19.70;69.50;;;;;;6225893;28;20231;-78
2023/07/31 11:33:11;;;;;;;4.50;4.20;;;19.70;69.60;;;;;;6238626;28;20243;-79
2023/07/31 11:36:17;;;;;;;4.30;4.10;;;19.70;68.10;;;;;;6225925;28;20242;-80
2023/07/31 11:39:20;;;;;;;5.07;4.70;;;19.80;68.80;;;;;;6231707;28;20243;-78
2023/07/31 11:42:24;;;;;;;4.60;4.27;;;20.00;68.40;;;;;;6229919;28;20224;-78
2023/07/31 11:45:29;;;;;;;5.07;4.70;;;19.90;67.20;;;;;;6239558;28;20289;-82
2023/07/31 11:48:35;;;;;;;4.93;4.57;;;19.90;67.60;;;;;;6237340;28;20242;-80
2023/07/31 11:51:38;;;;;;;4.77;4.33;;;19.90;67.80;;;;;;6229587;28;20341;-80
2023/07/31 11:54:42;;;;;;;4.23;3.93;;;20.00;66.60;;;;;;6226308;28;20254;-79
2023/07/31 11:57:46;;;;;;;4.43;4.20;;;20.00;66.10;;;;;;6219976;28;20254;-80
2023/07/31 12:00:51;;;;;;;5.00;4.50;;;20.00;66.00;;;;;;6235496;28;20238;-79
2023/07/31 12:03:54;;;;;;;5.43;4.20;;;19.90;66.50;;;;;;6229541;28;20223;-81
2023/07/31 12:07:00;;;;;;;5.43;4.93;;;19.90;67.00;;;;;;6228821;28;20237;-79
2023/07/31 12:10:04;;;;;;;4.63;4.17;;;19.90;67.10;;;;;;6222813;28;20247;-80
2023/07/31 12:13:10;;;;;;;4.40;4.00;;;19.60;67.50;;;;;;6212993;28;20243;-81
2023/07/31 12:16:18;;;;;;;4.80;4.40;;;19.70;67.90;;;;;;6219069;28;20296;-82
2023/07/31 12:19:22;;;;;;;5.57;5.17;;;19.90;68.00;;;;;;6238755;28;20241;-81
2023/07/31 12:22:27;;;;;;;4.27;3.97;;;20.00;66.50;;;;;;6221709;28;20235;-83
2023/07/31 12:25:32;;;;;;;4.00;3.73;;;20.10;66.30;;;;;;6217526;28;21757;-79
2023/07/31 12:28:39;;;;;;;4.47;4.03;;;20.30;66.10;;;;;;6227189;28;20261;-81
2023/07/31 12:31:44;;;;;;;4.83;3.97;;;20.50;65.90;;;;;;6217439;28;20736;-79
2023/07/31 12:34:47;;;;;;;4.30;4.00;;;20.40;64.40;;;;;;6225283;28;20234;-81
2023/07/31 12:37:50;;;;;;;3.90;3.70;;;20.20;64.90;;;;;;6223926;28;20249;-79
2023/07/31 12:40:53;;;;;;;3.93;3.73;;;20.20;65.20;;;;;;6223851;28;20289;-80
2023/07/31 12:43:56;;;;;;;4.37;4.07;;;20.30;64.50;;;;;;6220663;28;20254;-81
2023/07/31 12:47:00;;;;;;;5.07;4.47;;;20.60;64.60;;;;;;6226640;28;20247;-81
2023/07/31 12:50:06;;;;;;;4.60;4.30;;;20.90;64.70;;;;;;6227825;28;20238;-82
2023/07/31 12:53:09;;;;;;;3.87;3.60;;;20.90;64.70;;;;;;6226069;28;20234;-81
2023/07/31 12:56:12;;;;;;;3.90;3.70;;;21.10;64.30;;;;;;6226717;28;20247;-80
2023/07/31 12:59:15;;;;;;;4.13;3.83;;;20.80;64.50;;;;;;6219789;28;20235;-80
2023/07/31 13:02:20;;;;;;;3.90;3.63;;;20.50;65.20;;;;;;6218849;28;20242;-81
2023/07/31 13:05:26;;;;;;;5.70;3.47;;;20.50;65.30;;;;;;6216144;28;20238;-81
2023/07/31 13:08:29;;;;;;;3.43;3.33;;;20.50;65.00;;;;;;6223665;28;20238;-79
2023/07/31 13:11:33;;;;;;;3.27;3.00;;;20.40;65.30;;;;;;6222439;28;20235;-79
2023/07/31 13:14:36;;;;;;;2.80;2.60;;;20.10;65.40;;;;;;6225227;28;20246;-82
2023/07/31 13:17:41;;;;;;;3.30;3.10;;;20.10;65.90;;;;;;6226189;28;20265;-79
2023/07/31 13:20:44;;;;;;;3.20;3.00;;;20.10;65.50;;;;;;6214507;28;20310;-80
2023/07/31 13:23:47;;;;;;;4.23;3.50;;;20.10;65.80;;;;;;6222896;28;20758;-77
2023/07/31 13:26:51;;;;;;;3.40;3.13;;;20.30;66.00;;;;;;6227127;28;20235;-82
2023/07/31 13:29:54;;;;;;;3.27;3.17;;;20.20;66.00;;;;;;6221025;28;20245;-83
2023/07/31 13:32:59;;;;;;;4.53;3.73;;;20.10;66.20;;;;;;6218888;28;20374;-82
2023/07/31 13:36:02;;;;;;;3.87;3.57;;;20.30;66.10;;;;;;6221523;28;20232;-81
2023/07/31 13:39:05;;;;;;;3.73;3.43;;;20.30;66.10;;;;;;6216168;28;20882;-79
2023/07/31 13:42:11;;;;;;;3.60;3.50;;;20.50;66.20;;;;;;6231612;28;20239;-81
2023/07/31 13:45:15;;;;;;;3.83;3.53;;;20.70;65.30;;;;;;6228555;28;20255;-79
2023/07/31 13:48:19;;;;;;;4.37;3.83;;;20.90;64.70;;;;;;6229885;28;20234;-81
2023/07/31 13:51:22;;;;;;;4.23;3.97;;;21.10;64.60;;;;;;6219766;28;20234;-80
2023/07/31 13:54:26;;;;;;;4.10;3.90;;;21.30;64.40;;;;;;6230159;28;20242;-79
2023/07/31 13:57:33;;;;;;;4.73;4.27;;;21.10;64.30;;;;;;6226472;28;20361;-81
2023/07/31 14:00:36;;;;;;;6.43;5.90;;;21.40;64.00;;;;;;6228538;28;20289;-81
2023/07/31 14:03:40;;;;;;;4.67;4.37;;;21.30;64.50;;;;;;6229487;28;21077;-80
2023/07/31 14:06:47;;;;;;;4.83;4.43;;;21.20;63.90;;;;;;6228892;28;20242;-80
2023/07/31 14:09:50;;;;;;;4.40;4.10;;;21.00;64.40;;;;;;6221753;28;20247;-80
2023/07/31 14:12:54;;;;;;;4.53;4.23;;;20.90;64.40;;;;;;6231033;28;20243;-81
2023/07/31 14:15:58;;;;;;;4.50;4.10;;;21.00;64.50;;;;;;6228995;28;20321;-81
2023/07/31 14:19:03;;;;;;;4.03;3.83;;;21.10;64.00;;;;;;6225520;28;20322;-83
2023/07/31 14:22:07;;;;;;;5.60;4.23;;;20.90;64.80;;;;;;6240889;28;20231;-79
2023/07/31 14:25:13;;;;;;;4.50;4.30;;;21.00;64.30;;;;;;6219418;28;20314;-81
2023/07/31 14:28:17;;;;;;;3.93;3.80;;;20.90;65.00;;;;;;6221757;28;20247;-80
2023/07/31 14:31:20;;;;;;;4.80;4.17;;;20.90;65.30;;;;;;6227572;28;20317;-83
2023/07/31 14:34:25;;;;;;;4.13;3.93;;;21.00;65.50;;;;;;6212686;28;20238;-80
2023/07/31 14:37:38;;;;;;;4.30;3.97;;;21.10;64.60;;;;;;6219691;28;20235;-79
2023/07/31 14:40:42;;;;;;;4.10;3.80;;;21.10;64.00;;;;;;6224826;28;20257;-81
2023/07/31 14:43:45;;;;;;;4.80;4.50;;;21.20;64.20;;;;;;6225200;28;20239;-81
2023/07/31 14:46:48;;;;;;;4.23;3.90;;;21.30;63.90;;;;;;6224712;28;20254;-78
2023/07/31 14:49:53;;;;;;;4.13;3.83;;;21.30;63.00;;;;;;6232619;28;20849;-83
2023/07/31 14:52:56;;;;;;;5.17;4.27;;;21.10;63.20;;;;;;6229058;28;20239;-79
2023/07/31 14:56:00;;;;;;;4.07;3.87;;;21.20;62.90;;;;;;6222079;28;20814;-80
2023/07/31 14:59:04;;;;;;;5.07;4.60;;;21.10;63.00;;;;;;6223217;28;20730;-79
2023/07/31 15:02:09;;;;;;;4.30;4.10;;;21.10;63.10;;;;;;6216426;28;20627;-79
2023/07/31 15:05:14;;;;;;;4.53;4.30;;;21.10;62.90;;;;;;6226448;28;20235;-78
2023/07/31 15:08:17;;;;;;;3.93;3.73;;;21.10;63.30;;;;;;6226988;28;20278;-78
2023/07/31 15:11:20;;;;;;;4.23;4.03;;;21.10;63.50;;;;;;6223040;28;20227;-81
2023/07/31 15:14:25;;;;;;;4.00;3.80;;;21.10;63.10;;;;;;6214524;28;20425;-79
2023/07/31 15:17:29;;;;;;;3.93;3.73;;;20.90;63.60;;;;;;6216682;28;20254;-80
2023/07/31 15:20:34;;;;;;;4.57;4.17;;;20.90;64.10;;;;;;6221902;28;20723;-80
2023/07/31 15:23:38;;;;;;;4.33;4.03;;;20.90;64.00;;;;;;6227669;28;20321;-78
2023/07/31 15:26:42;;;;;;;4.50;4.10;;;20.80;64.80;;;;;;6224061;28;20238;-80
2023/07/31 15:29:46;;;;;;;4.90;4.50;;;20.70;65.60;;;;;;6228943;28;20607;-80
2023/07/31 15:32:50;;;;;;;4.83;4.43;;;20.70;66.00;;;;;;6220730;28;20257;-78
2023/07/31 15:35:55;;;;;;;4.77;4.30;;;20.70;66.10;;;;;;6228661;28;20718;-77
2023/07/31 15:38:58;;;;;;;5.17;4.70;;;20.70;65.60;;;;;;6226968;28;20255;-81
2023/07/31 15:42:01;;;;;;;4.90;4.60;;;20.60;65.80;;;;;;6221390;28;20239;-80
2023/07/31 15:45:06;;;;;;;4.83;4.40;;;20.60;65.80;;;;;;6228099;28;20302;-79
2023/07/31 15:48:10;;;;;;;4.40;4.10;;;20.60;66.00;;;;;;6213464;28;20712;-80
2023/07/31 15:51:16;;;;;;;7.90;7.20;;;20.80;66.60;;;;;;6227384;28;20714;-82
2023/07/31 15:54:19;;;;;;;6.37;5.87;;;20.90;66.70;;;;;;6221276;28;20246;-80
2023/07/31 15:57:22;;;;;;;5.37;4.87;;;20.80;66.50;;;;;;6223889;28;20228;-81
2023/07/31 16:00:25;;;;;;;5.37;4.90;;;20.70;66.30;;;;;;6228201;28;20235;-82
2023/07/31 16:03:28;;;;;;;5.47;5.07;;;20.80;66.70;;;;;;6225752;28;20250;-81
2023/07/31 16:06:33;;;;;;;5.53;5.23;;;20.60;66.60;;;;;;6229347;28;20231;-81